Flight Track Log - Related Links

Times and Time Zones

All times are in EDT time to prevent confusion due to time zone crossing. See the BJS339 flight status page for this flight to view local times or setup timezone preferences in your user account.

Time Position Orientation Groundspeed Altitude Reporting Facility
EDT Latitude Longitude Course Direction KTS MPH feet Rate Location/Type
Wed 05:56:22 PM 42.4394 -73.2636 23° Northeast 186 214 2,700  Level Boston Center
Wed 05:56:40 PM 42.4569 -73.2533 23° Northeast 208 239 3,700 3,000 Climbing Boston Center
Wed 05:57:40 PM 42.4906 -73.3267 302° West 244 281 6,600 2,876 Climbing Boston Center
Wed 05:58:41 PM 42.4903 -73.4256 270° West 262 302 9,500 1,984 Climbing Boston Center
Wed 05:59:44 PM 42.4681 -73.5242 253° West 272 313 10,700 2,081 Climbing Boston Center
Wed 06:00:45 PM 42.4447 -73.6281 253° West 271 312 13,800 2,926 Climbing Boston Center
Wed 06:01:45 PM 42.4219 -73.7331 254° West 286 329 16,600 2,516 Climbing Boston Center
Wed 06:02:49 PM 42.3958 -73.8511 253° West 321 369 19,000 2,371 Climbing Boston Center
Wed 06:03:49 PM 42.3725 -73.9611 254° West 331 381 21,500 2,430 Climbing Boston Center
Wed 06:04:50 PM 42.3447 -74.0831 253° West 336 387 23,900 2,371 Climbing Boston Center
Wed 06:05:53 PM 42.3114 -74.2333 253° West 345 397 26,400 2,160 Climbing Boston Center
Wed 06:06:55 PM 42.2819 -74.3628 253° West 356 410 28,400 1,500 Climbing Boston Center
Wed 06:07:57 PM 42.2539 -74.4886 253° West 367 422 29,500 1,033 Climbing Boston Center
Wed 06:08:57 PM 42.2211 -74.6322 253° West 394 453 30,500 1,140 Climbing Boston Center
Wed 06:09:58 PM 42.1878 -74.7789 253° West 407 468 31,800 1,306 Climbing Boston Center
Wed 06:11:01 PM 42.1547 -74.9214 253° West 404 465 33,200 1,694 Climbing Boston Center
Wed 06:12:02 PM 42.1142 -75.0933 252° West 402 463 35,300 1,623 Climbing Boston Center
Wed 06:13:03 PM 42.0850 -75.2169 252° West 385 443 36,500 1,033 Climbing Boston Center
Wed 06:14:04 PM 42.0667 -75.3556 260° West 382 440 37,400 950 Climbing Boston Center
Wed 06:14:44 PM 42.0719 -75.4700 274° West 386 444 38,100 900 Climbing New York Center
Wed 06:15:44 PM 42.0769 -75.6017 273° West 391 450 38,900 900 Climbing New York Center
Wed 06:16:44 PM 42.0833 -75.7475 273° West 391 450 39,900 550 Climbing New York Center
Wed 06:17:44 PM 42.0900 -75.8878 274° West 391 450 40,000 50 Climbing New York Center
Wed 06:18:44 PM 42.0958 -76.0392 273° West 391 450 40,000  Level New York Center
Wed 06:19:44 PM 42.1019 -76.1850 273° West 396 456 40,000  Level New York Center
Wed 06:20:44 PM 42.1075 -76.3336 273° West 396 456 40,000  Level New York Center
Wed 06:21:44 PM 42.1131 -76.4794 273° West 396 456 40,000  Level New York Center
Wed 06:22:44 PM 42.1206 -76.6225 274° West 396 456 40,000  Level New York Center
Wed 06:24:00 PM 42.1264 -76.8161 272° West 388 447 40,000  Level Cleveland Center
Wed 06:25:03 PM 42.1319 -76.9614 273° West 388 447 40,000  Level Cleveland Center
Wed 06:26:05 PM 42.1378 -77.1053 273° West 388 447 40,000  Level Cleveland Center
Wed 06:27:07 PM 42.1414 -77.2478 272° West 386 444 40,000  Level Cleveland Center
Wed 06:28:09 PM 42.1464 -77.3908 273° West 383 441 40,000  Level Cleveland Center
Wed 06:29:11 PM 42.1497 -77.5358 272° West 384 442 40,000  Level Cleveland Center
Wed 06:30:13 PM 42.1556 -77.7078 273° West 383 441 40,000  Level Cleveland Center
Wed 06:31:15 PM 42.1597 -77.8533 272° West 384 442 40,000  Level Cleveland Center
Wed 06:32:17 PM 42.1639 -77.9981 272° West 385 443 40,000  Level Cleveland Center
Wed 06:33:20 PM 42.1675 -78.1425 272° West 385 443 40,000  Level Cleveland Center
Wed 06:34:22 PM 42.1719 -78.3044 272° West 385 443 40,000  Level Cleveland Center
Wed 06:35:24 PM 42.1750 -78.4467 272° West 385 443 40,000  Level Cleveland Center
Wed 06:36:26 PM 42.1775 -78.5878 271° West 384 442 40,000  Level Cleveland Center
Wed 06:37:28 PM 42.1808 -78.7272 272° West 382 440 40,000  Level Cleveland Center
Wed 06:38:30 PM 42.1836 -78.8700 272° West 382 440 40,000  Level Cleveland Center
Wed 06:39:32 PM 42.1869 -79.0417 272° West 384 442 40,000  Level Cleveland Center
Wed 06:40:34 PM 42.1917 -79.1839 273° West 384 442 40,000  Level Cleveland Center
Wed 06:41:36 PM 42.2022 -79.3275 276° West 388 447 40,000  Level Cleveland Center
Wed 06:42:39 PM 42.2222 -79.4686 281° West 391 450 40,000  Level Cleveland Center
Wed 06:43:41 PM 42.2319 -79.6408 274° West 386 444 40,000  Level Cleveland Center
Wed 06:44:43 PM 42.2411 -79.7833 275° West 386 444 40,000  Level Cleveland Center
Wed 06:45:45 PM 42.2500 -79.9242 275° West 383 441 40,000  Level Cleveland Center
Wed 06:46:47 PM 42.2583 -80.0817 274° West 383 441 40,000  Level Cleveland Center
Wed 06:47:49 PM 42.2672 -80.2264 275° West 383 441 40,000  Level Cleveland Center
Wed 06:48:51 PM 42.2764 -80.3708 275° West 383 441 40,000  Level Cleveland Center
Wed 06:49:54 PM 42.2844 -80.5164 274° West 384 442 40,000  Level Cleveland Center
Wed 06:50:56 PM 42.2928 -80.6647 274° West 390 449 40,000  Level Cleveland Center
Wed 06:51:58 PM 42.3008 -80.8111 274° West 390 449 40,000  Level Cleveland Center
Wed 06:53:00 PM 42.3100 -80.9806 274° West 388 447 40,000  Level Cleveland Center
Wed 06:54:02 PM 42.3175 -81.1269 274° West 388 447 40,000  Level Cleveland Center
Wed 06:55:04 PM 42.3244 -81.2728 274° West 388 447 40,000  Level Cleveland Center
Wed 06:56:06 PM 42.3322 -81.4194 274° West 388 447 40,000  Level Cleveland Center
Wed 06:57:08 PM 42.3397 -81.5689 274° West 391 450 40,000  Level Cleveland Center
Wed 06:58:10 PM 42.3467 -81.7181 274° West 394 453 40,000  Level Cleveland Center
Wed 06:59:12 PM 42.3544 -81.8681 274° West 395 455 40,000  Level Cleveland Center
Wed 07:00:14 PM 42.3614 -82.0417 273° West 395 455 40,000  Level Cleveland Center
Wed 07:01:16 PM 42.3675 -82.1797 273° West 396 456 40,000  Level Cleveland Center
Wed 07:03:20 PM 42.3792 -82.4753 273° West 396 456 40,000  Level Cleveland Center
Wed 07:04:22 PM 42.3869 -82.6528 273° West 396 456 40,000  Level Cleveland Center
Wed 07:05:24 PM 42.3925 -82.8006 273° West 396 456 40,000  Level Cleveland Center
Wed 07:06:26 PM 42.3981 -82.9492 273° West 396 456 40,000  Level Cleveland Center
Wed 07:07:28 PM 42.4025 -83.0978 272° West 396 456 40,000  Level Cleveland Center
Wed 07:08:29 PM 42.4097 -83.2642 273° West 396 456 40,000  Level Cleveland Center
Wed 07:09:31 PM 42.4131 -83.4178 272° West 400 460 40,000 -387 Level Cleveland Center
Wed 07:10:33 PM 42.4183 -83.5722 273° West 407 468 39,200 -968 Descending Cleveland Center
Wed 07:11:35 PM 42.4236 -83.7219 273° West 407 468 38,000 -1,403 Descending Cleveland Center
Wed 07:12:37 PM 42.4269 -83.8633 272° West 384 442 36,300 -1,645 Descending Cleveland Center
Wed 07:13:39 PM 42.4306 -84.0100 272° West 388 447 34,600 -1,902 Descending Cleveland Center
Wed 07:14:40 PM 42.4358 -84.1922 272° West 405 466 32,400 -1,951 Descending Cleveland Center
Wed 07:15:42 PM 42.4397 -84.3467 272° West 406 467 30,600 -1,161 Descending Cleveland Center
Wed 07:16:44 PM 42.4419 -84.4975 271° West 406 467 30,000 -290 Descending Cleveland Center
Wed 07:17:46 PM 42.4153 -84.6467 256° West 404 465 30,000  Level Cleveland Center
Wed 07:18:47 PM 42.3842 -84.8072 255° West 414 476 30,000  Level Cleveland Center
Wed 07:19:49 PM 42.3861 -84.9725 271° West 428 493 30,000  Level Cleveland Center
Wed 07:20:51 PM 42.3969 -85.1342 275° West 430 495 30,000  Level Cleveland Center
Wed 07:21:53 PM 42.4094 -85.2950 276° West 431 496 30,000 -341 Level Cleveland Center
Wed 07:22:54 PM 42.4206 -85.4572 275° West 431 496 29,300 -1,512 Descending Cleveland Center
Wed 07:23:56 PM 42.4325 -85.6175 276° West 431 496 26,900 -2,146 Descending Cleveland Center
Wed 07:25:11 PM 42.4444 -85.7967 275° West 409 471 24,400 -2,190 Descending Chicago Center
Wed 07:26:13 PM 42.4569 -85.9697 276° West 391 450 21,900 -2,081 Descending Chicago Center
Wed 07:27:15 PM 42.4658 -86.1106 275° West 380 437 20,100 -919 Descending Chicago Center
Wed 07:28:17 PM 42.4578 -86.2431 265° West 359 413 20,000 -1,113 Descending Chicago Center
Wed 07:29:19 PM 42.4497 -86.3869 266° West 377 434 17,800 -2,371 Descending Chicago Center
Wed 07:30:21 PM 42.4433 -86.5217 266° West 360 414 15,100 -2,468 Descending Chicago Center
Wed 07:31:23 PM 42.4358 -86.6447 265° West 334 384 12,700 -2,177 Descending Chicago Center
Wed 07:32:25 PM 42.4319 -86.7625 267° West 316 364 10,600 -2,032 Descending Chicago Center
Wed 07:33:27 PM 42.4244 -86.8883 265° West 286 329 8,500 -1,887 Descending Chicago Center
Wed 07:34:29 PM 42.4183 -86.9911 265° West 278 320 6,700 -1,790 Descending Chicago Center
Wed 07:35:31 PM 42.4108 -87.0900 264° West 266 306 4,800 -1,742 Descending Chicago Center
Wed 07:36:33 PM 42.4056 -87.1889 266° West 264 304 3,100 -871 Descending Chicago Center
Wed 07:37:35 PM 42.4008 -87.2828 266° West 262 302 3,000 -48 Descending Chicago Center
Wed 07:38:37 PM 42.3872 -87.3775 259° West 260 299 3,000  Level Chicago Center
Wed 07:39:39 PM 42.3700 -87.4778 257° West 256 295 3,000  Level Chicago Center
Wed 07:40:41 PM 42.3542 -87.5689 257° West 254 292 3,000 -242 Level Chicago Center
Wed 07:41:43 PM 42.3342 -87.6786 256° West 254 292 2,500 -242 Descending Chicago Center
Wed 07:42:45 PM 42.3219 -87.7631 259° West 237 273 2,500  Level Chicago Center
Wed 07:43:46 PM 42.3358 -87.8236 287° West 197 227 2,500  Level Chicago Center
Wed 07:44:48 PM 42.3494 -87.8881 286° West 182 209 2,500  Level Chicago Center
Wed 07:45:50 PM 42.3692 -87.9472 294° West 177 204 2,500  Level Chicago Center
Wed 07:46:52 PM 42.3408 -87.9989 233° Southwest 193 222 2,500  Level Chicago Center
Wed 07:47:55 PM 42.2789 -87.9906 174° South 187 215 2,500  Level Chicago Center
Wed 07:48:56 PM 42.2311 -87.9656 159° South 185 213 2,500 -244 Level Chicago Center
Wed 07:49:58 PM 42.1889 -87.9428 158° South 152 175 2,000 -581 Descending Chicago Center
Wed 07:51:00 PM 42.1528 -87.9250 160° South 143 165 1,300 -435 Descending Chicago Center
Wed 07:52:02 PM 42.1206 -87.9069 157° South 142 163 1,100 -194 Descending Chicago Center

Login

Don't have an account? Register now (free) for customized features, flight alerts, and more!